createdAt,value
2023-01-02T00:01:14.272Z,11.99
2023-01-02T00:03:40.733Z,11.92
2023-01-02T00:06:07.779Z,11.99
2023-01-02T00:08:34.389Z,11.96
2023-01-02T00:11:00.853Z,11.95
2023-01-02T00:13:27.443Z,12.06
2023-01-02T00:15:53.783Z,12.10
2023-01-02T00:18:20.207Z,12.11
2023-01-02T00:20:46.679Z,12.11
2023-01-02T00:23:13.043Z,12.11
2023-01-02T00:25:39.461Z,12.06
2023-01-02T00:28:05.801Z,12.00
2023-01-02T00:30:37.828Z,11.99
2023-01-02T00:33:05.584Z,11.99
2023-01-02T00:35:31.995Z,12.01
2023-01-02T00:37:58.536Z,11.96
2023-01-02T00:40:24.877Z,11.90
2023-01-02T00:42:51.239Z,11.85
2023-01-02T00:45:17.754Z,11.89
2023-01-02T00:47:44.100Z,11.90
2023-01-02T00:50:10.463Z,11.86
2023-01-02T00:52:36.788Z,11.85
2023-01-02T00:55:03.580Z,11.87
2023-01-02T00:57:29.914Z,11.86
2023-01-02T00:59:56.542Z,11.82
2023-01-02T01:02:22.905Z,11.82
2023-01-02T01:04:49.329Z,11.84
2023-01-02T01:07:15.730Z,11.82
2023-01-02T01:09:42.072Z,11.70
2023-01-02T01:12:08.890Z,11.71
2023-01-02T01:14:35.419Z,11.58
2023-01-02T01:17:01.758Z,11.46
2023-01-02T01:19:32.961Z,11.57
2023-01-02T01:21:59.376Z,11.62
2023-01-02T01:24:26.362Z,11.62
2023-01-02T01:26:52.786Z,11.50
2023-01-02T01:29:19.770Z,11.23
2023-01-02T01:31:46.288Z,11.21
2023-01-02T01:34:12.828Z,11.01
2023-01-02T01:36:39.229Z,10.67
2023-01-02T01:39:05.707Z,10.89
2023-01-02T01:41:32.085Z,11.04
2023-01-02T01:44:00.365Z,11.15
2023-01-02T01:46:38.689Z,11.13
2023-01-02T01:49:16.064Z,11.19
2023-01-02T01:52:04.585Z,11.10
2023-01-02T01:54:41.696Z,11.11
2023-01-02T01:57:31.589Z,11.20
2023-01-02T01:59:59.859Z,11.19
2023-01-02T02:02:28.667Z,11.17
2023-01-02T02:04:59.753Z,11.20
2023-01-02T02:07:27.357Z,11.13
2023-01-02T02:10:00.038Z,11.02
2023-01-02T02:12:28.315Z,11.12
2023-01-02T02:14:54.803Z,11.07
2023-01-02T02:17:31.128Z,11.04
2023-01-02T02:20:03.615Z,11.06
2023-01-02T02:23:04.049Z,11.07
2023-01-02T02:25:43.352Z,10.99
2023-01-02T02:28:40.480Z,10.99
2023-01-02T02:31:16.128Z,10.99
2023-01-02T02:33:58.501Z,10.88
2023-01-02T02:36:40.905Z,11.03
2023-01-02T02:39:22.472Z,10.82
2023-01-02T02:42:10.836Z,10.80
2023-01-02T02:44:55.213Z,10.99
2023-01-02T02:47:30.632Z,10.98
2023-01-02T02:50:12.116Z,11.04
2023-01-02T02:52:48.636Z,10.88
2023-01-02T02:55:24.261Z,10.71
2023-01-02T02:57:52.664Z,10.41
2023-01-02T03:00:22.269Z,10.32
2023-01-02T03:02:49.090Z,10.52
2023-01-02T03:05:25.581Z,10.59
2023-01-02T03:07:57.438Z,10.74
2023-01-02T03:10:39.192Z,10.78
2023-01-02T03:13:14.349Z,10.68
2023-01-02T03:15:46.956Z,10.76
2023-01-02T03:18:27.603Z,10.79
2023-01-02T03:20:59.508Z,10.83
2023-01-02T03:23:29.016Z,10.75
2023-01-02T03:25:57.888Z,10.74
2023-01-02T03:28:26.722Z,10.73
2023-01-02T03:31:00.707Z,10.70
2023-01-02T03:33:35.817Z,10.62
2023-01-02T03:36:10.588Z,10.65
2023-01-02T03:38:43.035Z,10.70
2023-01-02T03:41:15.559Z,10.62
2023-01-02T03:43:45.479Z,10.68
2023-01-02T03:46:18.140Z,10.72
2023-01-02T03:49:07.334Z,10.72
2023-01-02T03:51:35.042Z,10.76
2023-01-02T03:54:02.832Z,10.74
2023-01-02T03:56:57.549Z,10.70
2023-01-02T03:59:46.636Z,10.69
2023-01-02T04:02:31.468Z,10.66
2023-01-02T04:05:19.787Z,10.68
2023-01-02T04:07:58.703Z,10.68
2023-01-02T04:10:27.867Z,10.70
2023-01-02T04:13:00.728Z,10.56
2023-01-02T04:15:30.090Z,10.60
2023-01-02T04:18:02.198Z,10.51
2023-01-02T04:20:40.818Z,10.56
2023-01-02T04:23:13.826Z,10.59
2023-01-02T04:25:55.097Z,10.57
2023-01-02T04:28:26.566Z,10.63
2023-01-02T04:31:00.114Z,10.65
2023-01-02T04:33:31.063Z,10.54
2023-01-02T04:35:57.410Z,10.55
2023-01-02T04:38:23.753Z,10.57
2023-01-02T04:40:50.096Z,10.45
2023-01-02T04:43:20.714Z,10.53
2023-01-02T04:45:48.601Z,10.47
2023-01-02T04:48:15.937Z,10.52
2023-01-02T04:50:42.967Z,10.48
2023-01-02T04:53:10.777Z,10.49
2023-01-02T04:55:38.564Z,10.46
2023-01-02T04:58:05.691Z,10.49
2023-01-02T05:00:32.168Z,10.48
2023-01-02T05:02:58.559Z,10.48
2023-01-02T05:05:24.884Z,10.43
2023-01-02T05:07:51.224Z,10.41
2023-01-02T05:10:17.691Z,10.39
2023-01-02T05:12:44.029Z,10.45
2023-01-02T05:15:10.926Z,10.46
2023-01-02T05:17:39.036Z,10.41
2023-01-02T05:20:07.505Z,10.40
2023-01-02T05:22:52.298Z,10.44
2023-01-02T05:25:18.636Z,10.40
2023-01-02T05:27:45.673Z,10.44
2023-01-02T05:30:12.167Z,10.49
2023-01-02T05:32:38.529Z,10.39
2023-01-02T05:35:05.211Z,10.31
2023-01-02T05:37:31.563Z,10.26
2023-01-02T05:39:57.905Z,10.28
2023-01-02T05:42:24.273Z,10.19
2023-01-02T05:44:51.214Z,10.22
2023-01-02T05:47:17.705Z,10.27
2023-01-02T05:49:44.362Z,10.14
2023-01-02T05:52:10.676Z,10.13
2023-01-02T05:54:37.015Z,10.23
2023-01-02T05:57:03.425Z,10.20
2023-01-02T05:59:29.953Z,10.23
2023-01-02T06:01:56.361Z,10.18
2023-01-02T06:04:22.737Z,10.21
2023-01-02T06:06:49.505Z,10.21
2023-01-02T06:09:16.998Z,10.25
2023-01-02T06:11:43.414Z,10.15
2023-01-02T06:14:10.787Z,10.09
2023-01-02T06:16:38.388Z,10.03
2023-01-02T06:19:05.816Z,9.75
2023-01-02T06:21:33.097Z,9.72
2023-01-02T06:23:59.825Z,9.75
2023-01-02T06:26:34.237Z,9.79
2023-01-02T06:29:01.239Z,9.85
2023-01-02T06:31:29.436Z,9.82
2023-01-02T06:33:57.705Z,9.91
2023-01-02T06:36:24.607Z,9.92
2023-01-02T06:38:50.943Z,9.93
2023-01-02T06:41:17.843Z,9.97
2023-01-02T06:43:46.737Z,10.01
2023-01-02T06:46:14.535Z,10.05
2023-01-02T06:48:41.806Z,10.02
2023-01-02T06:51:11.038Z,10.08
2023-01-02T06:53:39.334Z,10.00
2023-01-02T06:56:07.059Z,10.05
2023-01-02T06:58:35.465Z,10.04
2023-01-02T07:01:04.247Z,10.12
2023-01-02T07:03:31.067Z,10.02
2023-01-02T07:06:08.000Z,9.95
2023-01-02T07:08:34.373Z,9.79
2023-01-02T07:11:26.843Z,9.85
2023-01-02T07:13:54.619Z,9.88
2023-01-02T07:16:22.977Z,9.89
2023-01-02T07:18:50.947Z,9.89
2023-01-02T07:21:20.649Z,9.91
2023-01-02T07:23:47.048Z,9.90
2023-01-02T07:26:13.781Z,9.93
2023-01-02T07:28:40.352Z,9.96
2023-01-02T07:31:11.087Z,9.81
2023-01-02T07:33:37.625Z,9.92
2023-01-02T07:36:07.521Z,9.68
2023-01-02T07:38:34.795Z,9.68
2023-01-02T07:41:01.471Z,9.61
2023-01-02T07:43:27.980Z,9.57
2023-01-02T07:45:54.467Z,9.04
2023-01-02T07:48:21.021Z,9.35
2023-01-02T07:50:47.363Z,9.35
2023-01-02T07:53:13.788Z,8.74
2023-01-02T07:55:40.305Z,8.18
2023-01-02T07:58:06.639Z,8.22
2023-01-02T08:00:33.006Z,8.44
2023-01-02T08:03:00.515Z,8.43
2023-01-02T08:05:26.821Z,8.31
2023-01-02T08:07:53.131Z,8.38
2023-01-02T08:10:19.433Z,8.43
2023-01-02T08:12:45.929Z,8.63
2023-01-02T08:15:12.294Z,8.82
2023-01-02T08:17:39.436Z,9.05
2023-01-02T08:20:08.281Z,9.31
2023-01-02T08:22:35.151Z,9.53
2023-01-02T08:25:01.936Z,9.62
2023-01-02T08:27:28.506Z,9.70
2023-01-02T08:29:54.871Z,9.79
2023-01-02T08:32:21.249Z,9.84
2023-01-02T08:34:47.583Z,9.94
2023-01-02T08:37:14.003Z,9.99
2023-01-02T08:39:40.332Z,10.09
2023-01-02T08:42:07.272Z,10.08
2023-01-02T08:44:34.680Z,10.14
2023-01-02T08:47:01.014Z,10.19
2023-01-02T08:49:27.332Z,10.24
2023-01-02T08:51:53.721Z,10.29
2023-01-02T08:54:20.143Z,10.32
2023-01-02T08:56:46.519Z,10.42
2023-01-02T08:59:12.904Z,10.48
2023-01-02T09:01:40.340Z,10.59
2023-01-02T09:04:12.325Z,10.61
2023-01-02T09:06:39.292Z,10.70
2023-01-02T09:09:11.517Z,10.80
2023-01-02T09:11:43.027Z,10.85
2023-01-02T09:14:09.405Z,10.95
2023-01-02T09:16:35.748Z,10.69
2023-01-02T09:19:02.662Z,9.60
2023-01-02T09:21:29.574Z,9.76
2023-01-02T09:23:56.599Z,9.92
2023-01-02T09:26:23.195Z,10.20
2023-01-02T09:28:49.771Z,10.38
2023-01-02T09:31:17.302Z,10.39
2023-01-02T09:33:45.308Z,10.47
2023-01-02T09:36:14.257Z,10.57
2023-01-02T09:38:41.118Z,10.75
2023-01-02T09:41:24.990Z,10.76
2023-01-02T09:43:57.996Z,11.03
2023-01-02T09:46:51.915Z,11.13
2023-01-02T09:49:21.210Z,11.27
2023-01-02T09:51:48.152Z,11.29
2023-01-02T09:54:27.313Z,11.06
2023-01-02T09:57:35.644Z,10.90
2023-01-02T10:00:20.543Z,11.33
2023-01-02T10:03:13.273Z,11.50
2023-01-02T10:06:06.099Z,11.66
2023-01-02T10:08:53.861Z,11.89
2023-01-02T10:11:38.813Z,12.13
2023-01-02T10:14:21.174Z,12.24
2023-01-02T10:16:52.948Z,12.20
2023-01-02T10:19:32.887Z,12.08
2023-01-02T10:22:01.924Z,11.98
2023-01-02T10:24:40.591Z,11.89
2023-01-02T10:27:13.055Z,12.08
2023-01-02T10:29:50.546Z,12.22
2023-01-02T10:32:19.458Z,12.44
2023-01-02T10:35:07.943Z,12.61
2023-01-02T10:37:35.318Z,12.80
2023-01-02T10:40:01.980Z,12.84
2023-01-02T10:42:31.328Z,12.78
2023-01-02T10:44:57.703Z,12.93
2023-01-02T10:47:39.535Z,13.00
2023-01-02T10:50:20.787Z,13.10
2023-01-02T10:52:51.084Z,13.16
2023-01-02T10:55:32.665Z,13.36
2023-01-02T10:58:04.994Z,13.38
2023-01-02T11:00:34.400Z,13.63
2023-01-02T11:03:16.513Z,13.73
2023-01-02T11:05:54.871Z,13.68
2023-01-02T11:08:23.976Z,13.87
2023-01-02T11:10:51.483Z,13.93
2023-01-02T11:13:20.598Z,13.83
2023-01-02T11:15:50.399Z,14.01
2023-01-02T11:18:22.077Z,14.14
2023-01-02T11:20:53.323Z,13.96
2023-01-02T11:23:24.873Z,14.11
2023-01-02T11:25:52.732Z,14.25
2023-01-02T11:28:26.201Z,14.17
2023-01-02T11:31:03.375Z,13.86
2023-01-02T11:33:32.770Z,13.87
2023-01-02T11:36:14.045Z,14.02
2023-01-02T11:38:50.589Z,13.92
2023-01-02T11:41:48.932Z,14.10
2023-01-02T11:44:21.866Z,14.30
2023-01-02T11:46:48.365Z,14.43
2023-01-02T11:49:20.872Z,14.52
2023-01-02T11:51:57.254Z,14.64
2023-01-02T11:54:30.993Z,14.79
2023-01-02T11:56:59.418Z,14.80
2023-01-02T11:59:37.262Z,14.40
2023-01-02T12:02:17.817Z,14.11
2023-01-02T12:04:44.264Z,14.07
2023-01-02T12:07:38.568Z,14.01
2023-01-02T12:10:39.619Z,14.26
2023-01-02T12:13:24.780Z,14.27
2023-01-02T12:16:26.547Z,14.29
2023-01-02T12:19:27.285Z,14.47
2023-01-02T12:22:02.685Z,14.67
2023-01-02T12:24:56.702Z,14.65
2023-01-02T12:27:53.239Z,14.74
2023-01-02T12:30:21.520Z,14.95
2023-01-02T12:33:14.391Z,15.01
2023-01-02T12:36:16.083Z,15.09
2023-01-02T12:38:51.428Z,15.22
2023-01-02T12:41:27.518Z,14.97
2023-01-02T12:44:18.129Z,15.05
2023-01-02T12:47:31.039Z,15.19
2023-01-02T12:50:20.660Z,15.18
2023-01-02T12:53:08.799Z,15.22
2023-01-02T12:56:11.076Z,15.38
2023-01-02T12:59:05.459Z,15.54
2023-01-02T13:01:56.439Z,16.10
2023-01-02T13:04:31.687Z,16.50
2023-01-02T13:07:05.076Z,16.58
2023-01-02T13:09:44.352Z,16.14
2023-01-02T13:12:21.801Z,16.26
2023-01-02T13:14:55.748Z,16.26
2023-01-02T13:17:40.940Z,16.10
2023-01-02T13:20:13.410Z,15.79
2023-01-02T13:22:55.410Z,15.68
2023-01-02T13:25:23.435Z,15.85
2023-01-02T13:27:58.535Z,15.86
2023-01-02T13:30:34.069Z,15.73
2023-01-02T13:33:06.335Z,15.73
2023-01-02T13:35:36.994Z,15.92
2023-01-02T13:38:07.233Z,16.22
2023-01-02T13:40:34.782Z,16.18
2023-01-02T13:43:06.130Z,16.00
2023-01-02T13:45:42.540Z,16.05
2023-01-02T13:48:34.972Z,16.09
2023-01-02T13:51:13.645Z,16.19
2023-01-02T13:53:46.126Z,16.14
2023-01-02T13:56:18.841Z,16.32
2023-01-02T13:58:48.277Z,16.23
2023-01-02T14:01:20.539Z,16.30
2023-01-02T14:04:19.805Z,16.26
2023-01-02T14:06:53.558Z,16.26
2023-01-02T14:09:22.911Z,15.97
2023-01-02T14:11:58.708Z,16.02
2023-01-02T14:14:47.613Z,16.15
2023-01-02T14:17:19.117Z,16.17
2023-01-02T14:19:45.808Z,16.13
2023-01-02T14:22:17.709Z,16.04
2023-01-02T14:24:51.802Z,15.86
2023-01-02T14:27:25.989Z,15.75
2023-01-02T14:29:56.758Z,15.86
2023-01-02T14:32:39.556Z,15.60
2023-01-02T14:35:22.770Z,15.45
2023-01-02T14:37:51.020Z,15.25
2023-01-02T14:40:23.504Z,15.33
2023-01-02T14:43:22.337Z,15.34
2023-01-02T14:45:52.410Z,15.60
2023-01-02T14:48:31.141Z,15.52
2023-01-02T14:51:08.973Z,15.39
2023-01-02T14:53:51.930Z,15.46
2023-01-02T14:56:22.875Z,15.53
2023-01-02T14:58:50.751Z,15.81
2023-01-02T15:01:42.415Z,15.94
2023-01-02T15:04:39.205Z,16.04
2023-01-02T15:07:17.097Z,15.82
2023-01-02T15:09:49.188Z,15.63
2023-01-02T15:12:48.099Z,15.48
2023-01-02T15:15:18.471Z,15.31
2023-01-02T15:17:47.622Z,15.36
2023-01-02T15:20:23.649Z,15.36
2023-01-02T15:22:54.330Z,15.29
2023-01-02T15:25:40.679Z,15.04
2023-01-02T15:28:31.706Z,15.41
2023-01-02T15:31:03.673Z,15.70
2023-01-02T15:33:32.136Z,16.02
2023-01-02T15:36:04.957Z,16.21
2023-01-02T15:38:31.962Z,16.17
2023-01-02T15:40:58.694Z,16.26
2023-01-02T15:43:50.191Z,16.33
2023-01-02T15:46:16.774Z,15.76
2023-01-02T15:48:44.307Z,15.61
2023-01-02T15:51:16.252Z,15.80
2023-01-02T15:53:43.762Z,15.01
2023-01-02T15:56:30.745Z,15.43
2023-01-02T15:58:57.125Z,14.64
2023-01-02T16:01:24.441Z,14.83
2023-01-02T16:04:01.966Z,14.92
2023-01-02T16:06:41.105Z,14.54
2023-01-02T16:09:18.304Z,14.31
2023-01-02T16:11:49.112Z,14.45
2023-01-02T16:14:27.016Z,14.59
2023-01-02T16:17:22.495Z,14.75
2023-01-02T16:19:58.858Z,14.89
2023-01-02T16:22:43.863Z,14.94
2023-01-02T16:25:38.235Z,14.67
2023-01-02T16:28:34.835Z,14.84
2023-01-02T16:31:10.065Z,14.57
2023-01-02T16:33:37.630Z,14.42
2023-01-02T16:36:03.903Z,14.62
2023-01-02T16:38:32.224Z,14.51
2023-01-02T16:41:03.391Z,14.32
2023-01-02T16:43:35.386Z,14.30
2023-01-02T16:46:10.647Z,14.21
2023-01-02T16:48:39.316Z,14.33
2023-01-02T16:51:06.005Z,14.11
2023-01-02T16:53:33.647Z,14.07
2023-01-02T16:56:00.507Z,14.17
2023-01-02T16:58:26.864Z,14.22
2023-01-02T17:00:55.701Z,14.08
2023-01-02T17:03:25.502Z,14.23
2023-01-02T17:06:02.099Z,14.01
2023-01-02T17:08:31.293Z,13.85
2023-01-02T17:10:58.739Z,13.68
2023-01-02T17:13:25.749Z,13.72
2023-01-02T17:15:52.090Z,13.48
2023-01-02T17:18:18.459Z,13.81
2023-01-02T17:20:44.980Z,13.98
2023-01-02T17:23:11.474Z,14.02
2023-01-02T17:25:40.780Z,14.41
2023-01-02T17:28:07.415Z,14.51
2023-01-02T17:30:33.767Z,14.49
2023-01-02T17:33:03.996Z,14.34
2023-01-02T17:35:30.900Z,14.20
2023-01-02T17:37:57.223Z,14.06
2023-01-02T17:40:23.592Z,14.33
2023-01-02T17:42:49.947Z,14.47
2023-01-02T17:45:16.374Z,14.68
2023-01-02T17:48:02.596Z,14.76
2023-01-02T17:50:29.501Z,14.51
2023-01-02T17:52:55.853Z,14.07
2023-01-02T17:55:22.219Z,14.42
2023-01-02T17:57:48.916Z,14.76
2023-01-02T18:00:15.638Z,14.89
2023-01-02T18:02:42.070Z,15.00
2023-01-02T18:05:09.146Z,15.06
2023-01-02T18:07:35.570Z,15.11
2023-01-02T18:10:07.888Z,15.11
2023-01-02T18:12:37.692Z,15.12
2023-01-02T18:15:11.568Z,15.09
2023-01-02T18:17:37.916Z,15.04
2023-01-02T18:20:10.343Z,15.05
2023-01-02T18:22:36.701Z,15.03
2023-01-02T18:25:18.549Z,15.00
2023-01-02T18:27:45.468Z,14.95
2023-01-02T18:30:13.679Z,14.94
2023-01-02T18:32:41.757Z,14.88
2023-01-02T18:35:55.983Z,14.93
2023-01-02T18:38:19.136Z,14.83
2023-01-02T18:40:45.524Z,14.79
2023-01-02T18:43:32.348Z,14.73
2023-01-02T18:46:00.308Z,14.75
2023-01-02T18:48:26.856Z,14.72
2023-01-02T18:50:58.454Z,14.68
2023-01-02T18:53:29.524Z,14.58
2023-01-02T18:56:00.911Z,14.51
2023-01-02T18:58:43.349Z,14.25
2023-01-02T19:01:26.906Z,13.59
2023-01-02T19:04:00.727Z,13.63
2023-01-02T19:06:28.021Z,13.36
2023-01-02T19:09:05.805Z,13.51
2023-01-02T19:11:52.292Z,13.50
2023-01-02T19:14:23.158Z,12.74
2023-01-02T19:17:15.688Z,12.82
2023-01-02T19:19:42.009Z,12.51
2023-01-02T19:22:21.833Z,12.64
2023-01-02T19:24:48.465Z,12.77
2023-01-02T19:27:19.452Z,12.51
2023-01-02T19:29:50.707Z,12.56
2023-01-02T19:32:27.476Z,12.60
2023-01-02T19:34:57.900Z,12.49
2023-01-02T19:37:35.728Z,12.68
2023-01-02T19:40:07.173Z,12.75
2023-01-02T19:42:35.432Z,12.33
2023-01-02T19:45:06.500Z,12.10
2023-01-02T19:47:35.011Z,12.18
2023-01-02T19:50:02.269Z,12.25
2023-01-02T19:52:29.875Z,12.11
2023-01-02T19:54:56.995Z,11.73
2023-01-02T19:57:24.152Z,11.63
2023-01-02T19:59:52.432Z,11.89
2023-01-02T20:02:21.578Z,12.09
2023-01-02T20:04:50.014Z,12.07
2023-01-02T20:07:16.669Z,12.28
2023-01-02T20:09:43.065Z,12.08
2023-01-02T20:12:28.087Z,11.83
2023-01-02T20:14:54.437Z,11.81
2023-01-02T20:17:20.816Z,11.73
2023-01-02T20:19:47.198Z,11.91
2023-01-02T20:22:13.560Z,12.10
2023-01-02T20:24:39.916Z,12.30
2023-01-02T20:27:06.678Z,12.38
2023-01-02T20:29:33.076Z,12.38
2023-01-02T20:31:59.924Z,12.58
2023-01-02T20:34:26.537Z,12.45
2023-01-02T20:36:53.713Z,12.35
2023-01-02T20:39:20.125Z,12.08
2023-01-02T20:41:46.451Z,11.95
2023-01-02T20:44:13.879Z,12.29
2023-01-02T20:46:40.681Z,12.65
2023-01-02T20:49:07.912Z,12.69
2023-01-02T20:51:35.360Z,12.52
2023-01-02T20:54:02.244Z,12.71
2023-01-02T20:56:28.589Z,12.98
2023-01-02T20:58:55.540Z,13.12
2023-01-02T21:01:22.867Z,12.74
2023-01-02T21:03:49.697Z,12.83
2023-01-02T21:06:17.200Z,12.67
2023-01-02T21:08:43.560Z,12.67
2023-01-02T21:11:10.574Z,12.56
2023-01-02T21:13:37.029Z,12.11
2023-01-02T21:16:03.552Z,11.96
2023-01-02T21:18:32.727Z,11.74
2023-01-02T21:21:11.083Z,11.64
2023-01-02T21:23:39.782Z,11.81
2023-01-02T21:26:08.188Z,11.97
2023-01-02T21:28:35.706Z,11.80
2023-01-02T21:31:02.209Z,11.88
2023-01-02T21:33:29.391Z,11.54
2023-01-02T21:35:57.977Z,11.44
2023-01-02T21:38:26.349Z,11.61
2023-01-02T21:40:53.321Z,11.52
2023-01-02T21:43:21.714Z,11.44
2023-01-02T21:45:48.727Z,11.48
2023-01-02T21:48:15.142Z,11.16
2023-01-02T21:50:41.538Z,11.17
2023-01-02T21:53:08.019Z,11.14
2023-01-02T21:55:34.365Z,11.32
2023-01-02T21:58:16.081Z,11.37
2023-01-02T22:00:43.525Z,11.13
2023-01-02T22:03:10.371Z,10.90
2023-01-02T22:05:36.853Z,10.67
2023-01-02T22:08:03.281Z,10.88
2023-01-02T22:10:29.693Z,10.88
2023-01-02T22:12:56.048Z,11.04
2023-01-02T22:15:22.778Z,10.90
2023-01-02T22:17:49.157Z,10.88
2023-01-02T22:20:15.592Z,10.86
2023-01-02T22:22:41.977Z,10.92
2023-01-02T22:25:09.096Z,10.95
2023-01-02T22:27:35.759Z,11.01
2023-01-02T22:30:21.583Z,11.00
2023-01-02T22:32:49.645Z,11.13
2023-01-02T22:35:16.121Z,10.97
2023-01-02T22:37:42.523Z,11.25
2023-01-02T22:40:09.493Z,11.01
2023-01-02T22:43:01.008Z,11.29
2023-01-02T22:45:32.164Z,11.56
2023-01-02T22:48:03.448Z,11.44
2023-01-02T22:50:39.047Z,11.56
2023-01-02T22:53:15.271Z,11.56
2023-01-02T22:55:41.681Z,11.16
2023-01-02T22:58:08.644Z,10.77
2023-01-02T23:00:35.072Z,10.71
2023-01-02T23:03:01.447Z,10.48
2023-01-02T23:05:27.800Z,10.50
2023-01-02T23:07:54.194Z,10.63
2023-01-02T23:10:20.527Z,10.54
2023-01-02T23:12:46.935Z,10.57
2023-01-02T23:15:13.929Z,10.46
2023-01-02T23:17:58.944Z,10.47
2023-01-02T23:20:25.994Z,10.50
2023-01-02T23:22:52.373Z,10.47
2023-01-02T23:25:18.694Z,10.64
2023-01-02T23:27:45.044Z,10.80
2023-01-02T23:30:12.268Z,10.79
2023-01-02T23:32:38.633Z,10.42
2023-01-02T23:35:05.933Z,10.57
2023-01-02T23:37:32.272Z,10.84
2023-01-02T23:39:58.721Z,11.05
2023-01-02T23:42:25.107Z,10.97
2023-01-02T23:44:51.445Z,11.11
2023-01-02T23:47:19.457Z,10.98
2023-01-02T23:49:46.249Z,11.12
2023-01-02T23:52:12.888Z,10.82
2023-01-02T23:54:39.227Z,10.76
2023-01-02T23:57:05.631Z,10.58
2023-01-02T23:59:32.032Z,10.09
